หน้าหลัก
METAR-TAF:

METAR-TAF

ท่าอากาศยาน :

ลอนดอน Biggin Hill, อังกฤษ

ละติจูด: 51-19N, ลองจิจูด: 000-02E, ความสูง: 183 ม.

การสังเกตสภาพอากาศปัจจุบัน

รายงานได้ทำขึ้นเมื่อ 5 ชั่วโมงและ 54 นาทีที่แล้ว ณ เวลา 21:20 UTC
ลม 7 นอตจากใต้
อุณหภูมิ 10°C
ความชื้น 82%
ความกดอากาศ 1019 hPa
ทัศนวิสัย 10 กม. หรือมากกว่า
ไม่มีเมฆต่ำกว่า 1,500 ม. และไม่มีเมฆคิวมูโลนิมบัส

METAR: EGKB 122120Z 19007KT CAVOK 10/07 Q1019

เวลา: 04:14 (03:14 UTC)

การพยากรณ์

รายงานได้ทำขึ้นเมื่อ 10 ชั่วโมงและ 19 นาทีที่แล้ว ณ เวลา 16:55 UTC
การพยากรณ์มีผลตั้งแต่วันที่ 12 ณ เวลา 18 UTC จนถึงวันที่ 12 ณ เวลา 22 UTC
ลม 5 นอตจากตะวันตกเฉียงใต้
ทัศนวิสัย 10 กม. หรือมากกว่า
มีเมฆน้อยที่ความสูง 4000 ฟุต

TAF: EGKB 121655Z 1218/1222 23005KT 9999 FEW040

สังเกตการณ์สภาพอากาศและพยากรณ์อากาศของสนามบินมากกว่า 4000 แห่ง (รายงาน METAR และ TAF).

สถานีที่ดูได้จะแสดงไว้ด้วยจุดสีเหลืองและสีแดงบนแผนที่.

เลื่อนเมาส์ไปเหนือจุดเพื่อดูชื่อสถานี.

แล้วคลิกเพื่อดูสังเกตการณ์และการพยากรณ์สภาพอากาศ.

ในการเปลี่ยนแผนที่: คลิกที่ปุ่มสีเขียวที่มีกากบาทสีดำเพื่อซูมเข้า; ที่ปุ่มสีเขียวที่มีขีดเพื่อซูมออก; หรือที่ลูกศรสีเขียวเพื่อไปยังแผนที่ที่อยู่ติดกัน.


METAR-TAF: